CST,Max TemperatureF,Mean TemperatureF,Min TemperatureF,Max Dew PointF,MeanDew PointF,Min DewpointF,Max Humidity, Mean Humidity, Min Humidity, Max Sea Level PressureIn, Mean Sea Level PressureIn, Min Sea Level PressureIn, Max VisibilityMiles, Mean VisibilityMiles, Min VisibilityMiles, Max Wind SpeedMPH, Mean Wind SpeedMPH, Max Gust SpeedMPH,PrecipitationIn, CloudCover, Events, WindDirDegrees
2013-11-1,68,58,47,44,39,36,77,55,32,29.98,29.84,29.74,10,10,10,14,6,22,0.00,1,,289
2013-11-2,56,46,36,40,37,34,86,68,50,30.24,30.14,29.97,10,10,3,16,7,23,0.00,2,,304
2013-11-3,61,47,32,40,35,31,96,67,37,30.27,30.19,30.07,10,10,8,18,8,24,0.00,0,,150
2013-11-4,55,52,49,50,45,38,96,79,61,30.21,30.14,30.07,10,8,3,23,13,30,0.18,6,Rain,149
2013-11-5,61,56,51,58,54,50,100,92,84,30.19,30.11,29.99,10,6,1,21,11,26,0.46,8,Rain,144
2013-11-6,60,49,38,59,47,33,100,87,73,30.36,30.11,29.92,10,8,2,17,9,26,0.48,8,Rain,297
2013-11-7,61,47,33,35,33,29,96,64,31,30.45,30.39,30.34,10,9,1,15,5,23,0.00,1,,292
2013-11-8,64,49,33,38,34,30,96,63,30,30.37,30.25,30.12,10,10,10,18,8,23,0.00,0,,165
2013-11-9,65,56,46,43,40,34,71,57,42,30.27,30.18,30.12,10,10,10,10,4,15,0.00,6,,160
2013-11-10,64,54,44,43,38,34,77,54,31,30.40,30.32,30.28,10,10,10,10,4,14,0.00,2,,119
2013-11-11,68,56,43,51,44,38,93,69,44,30.37,30.25,30.18,10,10,10,16,5,24,0.00,7,,299
2013-11-12,44,34,23,36,19,10,83,57,30,30.72,30.64,30.41,10,9,0,17,8,24,0.00,3,,350
2013-11-13,50,34,18,20,16,12,84,53,21,30.70,30.51,30.33,10,8,2,14,6,17,0.00,0,,147
2013-11-14,57,43,28,36,21,16,63,42,21,30.32,30.19,30.04,10,9,2,17,10,21,0.07,2,Rain,151
2013-11-15,54,48,41,50,41,30,89,74,58,30.06,29.98,29.90,10,9,1,16,8,21,0.02,8,Rain,155
2013-11-16,69,62,54,63,57,51,89,76,63,29.91,29.76,29.63,10,3,0,30,15,39,0.05,6,Rain,179
2013-11-17,77,63,49,63,52,20,78,49,20,30.05,29.69,29.55,10,3,0,25,12,39,0.01,0,,223
2013-11-18,63,53,42,36,26,12,65,40,14,30.28,30.21,30.07,10,10,10,16,5,22,0.00,0,,351
2013-11-19,56,47,37,30,25,22,70,49,28,30.31,30.22,30.12,10,8,2,17,9,23,0.00,1,,128
2013-11-20,65,52,39,32,25,15,64,40,15,30.12,30.04,29.94,10,10,10,18,12,23,T,5,,138
2013-11-21,56,52,47,52,47,33,100,72,43,30.22,30.08,30.01,10,3,0,20,5,28,1.48,8,Fog-Rain-Thunderstorm,98
2013-11-22,50,41,31,50,36,29,100,95,89,30.52,30.38,30.20,10,5,0,16,9,25,0.03,8,Fog-Rain,330
2013-11-23,38,30,22,30,21,11,100,68,35,30.67,30.59,30.51,10,10,8,15,8,21,0.01,5,,345
2013-11-24,27,22,16,12,10,7,74,58,42,30.71,30.59,30.40,10,10,10,14,7,17,0.00,3,,82
2013-11-25,33,30,27,31,25,11,92,71,50,30.39,30.24,30.16,10,8,2,14,4,17,0.01,8,,130
2013-11-26,45,36,26,31,26,14,92,72,51,30.30,30.17,30.09,10,9,3,21,9,31,T,5,Snow,325
2013-11-27,36,27,18,13,10,8,67,51,35,30.43,30.36,30.32,10,10,10,17,6,22,T,0,,319
2013-11-28,58,40,21,27,21,11,70,50,30,30.46,30.36,30.30,10,10,10,15,5,21,0.00,0,,258
2013-11-29,56,42,28,30,26,22,85,58,30,30.53,30.44,30.35,10,10,10,14,6,16,0.00,0,,159
2013-11-30,60,47,33,40,34,24,83,63,43,30.34,30.23,30.14,10,10,10,15,7,18,0.00,0,,169